Weather at Stornoway Airport

Public forecast

Using degrees Celsius for public forecast. Weather courtesy of forecast.io.

Current aviation weather report (METAR) for Stornoway Airport

Retrieved 2021/04/14 20:50 UTC (14 minutes ago):

EGPO 142050Z AUTO 00000KT 9999 NCD 04/02 Q1034

Aviation forecast (TAF) for Stornoway Airport

Forecast is more than 12 hours old.

Retrieved 2017/03/05 03:00 UTC (4 years ago):

TAF TAF EGPO 050556Z 0503/0515 CNL